Time;durP1;ratioP1;P1;durP2;ratioP2;P2;SDS_P1;SDS_P2;PMS_P1;PMS_P2;Temp;Humidity;BMP_temperature;BMP_pressure;BME280_temperature;BME280_humidity;BME280_pressure;Samples;Min_cycle;Max_cycle;Signal;HPM_P1;HPM_P2
2023/05/16 00:01:57;;;;;;;14.60;12.70;;;10.40;99.90;;;;;;5053577;28;20448;-65
2023/05/16 00:04:25;;;;;;;12.68;11.02;;;10.40;99.90;;;;;;5053478;28;20293;-65
2023/05/16 00:06:51;;;;;;;11.80;10.60;;;10.40;99.90;;;;;;5053221;28;20201;-65
2023/05/16 00:09:20;;;;;;;14.88;13.38;;;10.40;99.90;;;;;;5053183;28;20209;-65
2023/05/16 00:11:49;;;;;;;13.40;11.73;;;10.40;99.90;;;;;;5052830;28;20250;-65
2023/05/16 00:14:15;;;;;;;13.85;12.40;;;10.40;99.90;;;;;;5052512;28;20671;-65
2023/05/16 00:16:42;;;;;;;13.75;12.23;;;10.30;99.90;;;;;;5052833;28;20214;-65
2023/05/16 00:19:09;;;;;;;14.20;12.70;;;10.30;99.90;;;;;;5052789;28;20208;-65
2023/05/16 00:21:36;;;;;;;13.40;12.20;;;10.30;99.90;;;;;;5052747;28;20221;-65
2023/05/16 00:24:04;;;;;;;16.27;12.97;;;10.30;99.90;;;;;;5052725;28;20449;-65
2023/05/16 00:26:32;;;;;;;16.02;12.45;;;10.30;99.90;;;;;;5053463;28;20444;-65
2023/05/16 00:28:59;;;;;;;15.13;13.52;;;10.30;99.90;;;;;;5057229;28;20573;-65
2023/05/16 00:31:26;;;;;;;15.07;13.57;;;10.30;99.90;;;;;;5057228;28;20226;-65
2023/05/16 00:33:53;;;;;;;17.40;13.90;;;10.40;99.90;;;;;;5056758;28;20464;-65
2023/05/16 00:36:20;;;;;;;15.40;12.40;;;10.40;99.90;;;;;;5057357;28;20232;-65
2023/05/16 00:38:47;;;;;;;16.65;13.77;;;10.40;99.90;;;;;;5056883;28;20506;-65
2023/05/16 00:41:14;;;;;;;13.73;12.25;;;10.40;99.90;;;;;;5056842;28;20222;-65
2023/05/16 00:43:42;;;;;;;17.23;12.80;;;10.40;99.90;;;;;;5056573;28;20683;-66
2023/05/16 00:46:09;;;;;;;15.30;13.10;;;10.40;99.90;;;;;;5056486;28;20442;-66
2023/05/16 00:48:36;;;;;;;14.77;12.70;;;10.40;99.90;;;;;;5056407;28;20913;-65
2023/05/16 00:51:03;;;;;;;14.43;11.03;;;10.40;99.90;;;;;;5056315;28;20478;-65
2023/05/16 00:53:30;;;;;;;11.38;10.23;;;10.50;99.90;;;;;;5056473;28;20470;-65
2023/05/16 00:55:57;;;;;;;10.67;9.57;;;10.50;99.90;;;;;;5056038;28;20689;-64
2023/05/16 00:58:25;;;;;;;11.90;9.50;;;10.50;99.90;;;;;;5055879;28;20934;-65
2023/05/16 01:00:53;;;;;;;9.40;8.37;;;10.50;99.90;;;;;;5055925;28;20471;-65
2023/05/16 01:03:20;;;;;;;11.83;9.30;;;10.50;99.90;;;;;;5056271;28;20455;-65
2023/05/16 01:05:47;;;;;;;8.23;7.43;;;10.60;99.90;;;;;;5055893;28;20451;-65
2023/05/16 01:08:13;;;;;;;8.60;6.13;;;10.60;99.90;;;;;;5056010;28;20437;-66
2023/05/16 01:10:49;;;;;;;6.25;5.72;;;10.60;99.90;;;;;;5056492;28;20466;-65
2023/05/16 01:13:23;;;;;;;5.55;5.05;;;10.60;99.90;;;;;;5056382;28;20558;-66
2023/05/16 01:16:02;;;;;;;8.63;5.05;;;10.60;99.90;;;;;;5056116;28;20620;-66
2023/05/16 01:18:36;;;;;;;6.25;4.32;;;10.60;99.90;;;;;;5056117;28;20183;-66
2023/05/16 01:21:09;;;;;;;5.40;4.70;;;10.60;99.90;;;;;;5056011;28;20221;-66
2023/05/16 01:23:51;;;;;;;6.40;5.33;;;10.60;99.90;;;;;;5055840;28;20511;-66
2023/05/16 01:26:21;;;;;;;6.03;5.43;;;10.60;99.90;;;;;;5055370;28;20808;-64
2023/05/16 01:28:49;;;;;;;6.63;5.80;;;10.60;99.90;;;;;;5055391;28;20543;-64
2023/05/16 01:31:16;;;;;;;7.57;6.30;;;10.60;99.90;;;;;;5055381;28;20815;-65
2023/05/16 01:33:43;;;;;;;9.10;6.00;;;10.60;99.90;;;;;;5055422;28;20444;-65
2023/05/16 01:36:20;;;;;;;8.27;7.23;;;10.50;99.90;;;;;;5055356;28;20472;-65
2023/05/16 01:39:00;;;;;;;7.73;7.00;;;10.50;99.90;;;;;;5054682;28;20475;-65
2023/05/16 01:41:41;;;;;;;11.93;7.27;;;10.60;99.90;;;;;;5054871;28;20949;-65
2023/05/16 01:44:16;;;;;;;12.00;8.07;;;10.50;99.90;;;;;;5055078;28;20432;-65
2023/05/16 01:46:46;;;;;;;6.60;6.00;;;10.50;99.90;;;;;;5054935;28;20425;-66
2023/05/16 01:49:16;;;;;;;8.53;7.63;;;10.50;99.90;;;;;;5054752;28;20214;-65
2023/05/16 01:51:48;;;;;;;7.90;6.63;;;10.50;99.90;;;;;;5054715;28;20452;-65
2023/05/16 01:54:17;;;;;;;7.77;6.80;;;10.50;99.90;;;;;;5055579;28;20832;-65
2023/05/16 01:56:51;;;;;;;8.30;6.70;;;10.50;99.90;;;;;;5055048;28;21045;-65
2023/05/16 01:59:20;;;;;;;7.40;6.70;;;10.50;99.90;;;;;;5055705;28;20428;-65
2023/05/16 02:01:46;;;;;;;11.17;7.97;;;10.40;99.90;;;;;;5054981;28;20201;-65
2023/05/16 02:04:14;;;;;;;12.50;6.87;;;10.40;99.90;;;;;;5055132;28;20451;-65
2023/05/16 02:06:41;;;;;;;7.95;6.28;;;10.40;99.90;;;;;;5054954;28;20885;-65
2023/05/16 02:09:08;;;;;;;7.70;6.70;;;10.50;99.90;;;;;;5054770;28;20578;-65
2023/05/16 02:11:35;;;;;;;9.70;6.00;;;10.50;99.90;;;;;;5054579;28;20464;-65
2023/05/16 02:14:03;;;;;;;9.18;6.85;;;10.50;99.90;;;;;;5054692;28;20476;-65
2023/05/16 02:16:30;;;;;;;10.00;6.43;;;10.50;99.90;;;;;;5054600;28;20301;-65
2023/05/16 02:18:57;;;;;;;7.03;6.07;;;10.50;99.90;;;;;;5054684;28;20441;-65
2023/05/16 02:21:24;;;;;;;8.20;5.87;;;10.50;99.90;;;;;;5054591;28;20221;-65
2023/05/16 02:23:51;;;;;;;6.50;5.67;;;10.50;99.90;;;;;;5054565;28;20447;-65
2023/05/16 02:26:17;;;;;;;8.00;5.72;;;10.50;99.90;;;;;;5054277;28;20961;-65
2023/05/16 02:28:44;;;;;;;6.33;5.57;;;10.50;99.90;;;;;;5054331;28;20206;-65
2023/05/16 02:31:13;;;;;;;9.35;5.15;;;10.50;99.90;;;;;;5054186;28;20468;-65
2023/05/16 02:33:40;;;;;;;8.93;5.25;;;10.50;99.90;;;;;;5054457;28;20259;-65
2023/05/16 02:36:07;;;;;;;6.73;5.10;;;10.50;99.90;;;;;;5054406;28;20202;-65
2023/05/16 02:38:34;;;;;;;6.93;5.03;;;10.50;99.90;;;;;;5054145;28;20490;-65
2023/05/16 02:41:01;;;;;;;6.40;5.50;;;10.50;99.90;;;;;;5053727;28;20249;-66
2023/05/16 02:43:28;;;;;;;8.88;5.63;;;10.40;99.90;;;;;;5054016;28;20455;-65
2023/05/16 02:45:54;;;;;;;6.97;4.85;;;10.40;99.90;;;;;;5054017;28;20210;-65
2023/05/16 02:48:22;;;;;;;8.00;5.00;;;10.30;99.90;;;;;;5053620;28;20204;-65
2023/05/16 02:50:49;;;;;;;9.10;5.03;;;10.20;99.90;;;;;;5052542;28;20234;-65
2023/05/16 02:53:16;;;;;;;5.20;4.70;;;10.10;99.90;;;;;;5053802;28;20213;-65
2023/05/16 02:55:43;;;;;;;7.80;3.85;;;10.00;99.90;;;;;;5054040;28;20450;-65
2023/05/16 02:58:10;;;;;;;6.93;4.35;;;9.80;99.90;;;;;;5053779;28;20221;-65
2023/05/16 03:00:36;;;;;;;9.23;4.47;;;9.70;99.90;;;;;;5053552;28;20230;-65
2023/05/16 03:03:04;;;;;;;8.55;5.38;;;9.60;99.90;;;;;;5053954;28;20209;-65
2023/05/16 03:05:32;;;;;;;9.02;5.30;;;9.50;99.90;;;;;;5053519;28;20259;-65
2023/05/16 03:07:59;;;;;;;6.47;5.28;;;9.50;99.90;;;;;;5053962;28;20208;-65
2023/05/16 03:10:26;;;;;;;8.15;4.15;;;9.50;99.90;;;;;;5052891;28;20733;-65
2023/05/16 03:12:52;;;;;;;10.80;4.80;;;9.50;99.90;;;;;;5053221;28;20686;-65
2023/05/16 03:15:19;;;;;;;8.95;4.13;;;9.50;99.90;;;;;;5053388;28;20209;-65
2023/05/16 03:17:46;;;;;;;6.78;3.45;;;9.50;99.90;;;;;;5053436;28;20267;-65
2023/05/16 03:20:13;;;;;;;6.75;4.63;;;9.50;99.90;;;;;;5053285;28;20222;-65
2023/05/16 03:22:44;;;;;;;7.05;4.10;;;9.60;99.90;;;;;;5053276;28;20264;-65
2023/05/16 03:25:10;;;;;;;6.13;3.58;;;9.60;99.90;;;;;;5053202;28;20205;-65
2023/05/16 03:27:37;;;;;;;7.93;3.40;;;9.60;99.90;;;;;;5053311;28;20207;-65
2023/05/16 03:30:04;;;;;;;9.20;3.70;;;9.60;99.90;;;;;;5053226;28;20221;-65
2023/05/16 03:32:31;;;;;;;7.95;4.00;;;9.70;99.90;;;;;;5053340;28;20228;-65
2023/05/16 03:34:58;;;;;;;10.57;3.83;;;9.70;99.90;;;;;;5052639;28;20675;-65
2023/05/16 03:37:25;;;;;;;4.10;3.70;;;9.70;99.90;;;;;;5052766;28;20221;-65
2023/05/16 03:39:53;;;;;;;5.78;3.95;;;9.70;99.90;;;;;;5052969;28;20225;-65
2023/05/16 03:42:20;;;;;;;13.45;4.22;;;9.70;99.90;;;;;;5053101;28;20228;-65
2023/05/16 03:44:47;;;;;;;10.70;3.90;;;9.70;99.90;;;;;;5053042;28;20213;-65
2023/05/16 03:47:14;;;;;;;3.95;3.55;;;9.70;99.90;;;;;;5053424;28;20293;-65
2023/05/16 03:49:41;;;;;;;7.00;3.50;;;9.80;99.90;;;;;;5052239;28;20706;-65
2023/05/16 03:52:08;;;;;;;6.13;3.22;;;9.80;99.90;;;;;;5052499;28;20193;-65
2023/05/16 03:54:35;;;;;;;4.25;3.63;;;9.80;99.90;;;;;;5052706;28;20208;-65
2023/05/16 03:57:03;;;;;;;7.43;3.40;;;9.70;99.90;;;;;;5052445;28;20205;-65
2023/05/16 03:59:30;;;;;;;8.05;3.80;;;9.80;99.90;;;;;;5052223;28;20206;-65
2023/05/16 04:01:57;;;;;;;5.25;3.30;;;9.80;99.90;;;;;;5052075;28;20213;-65
2023/05/16 04:04:23;;;;;;;6.75;4.45;;;9.80;99.90;;;;;;5052500;28;20197;-64
2023/05/16 04:06:50;;;;;;;11.95;4.30;;;9.80;99.90;;;;;;5052786;28;20228;-65
2023/05/16 04:11:41;;;;;;;9.23;4.28;;;9.90;99.90;;;;;;5106915;27;1255457;-66
2023/05/16 04:14:07;;;;;;;6.88;4.10;;;9.80;99.90;;;;;;5151674;27;20205;-66
2023/05/16 04:16:34;;;;;;;8.95;3.88;;;9.90;99.90;;;;;;5151566;27;20297;-65
2023/05/16 04:19:02;;;;;;;9.65;4.60;;;9.90;99.90;;;;;;5151541;27;20209;-64
2023/05/16 04:21:29;;;;;;;7.75;3.33;;;9.90;99.90;;;;;;5150762;27;20214;-64
2023/05/16 04:23:56;;;;;;;13.73;4.38;;;9.90;99.90;;;;;;5151380;27;20288;-64
2023/05/16 04:26:23;;;;;;;11.07;4.25;;;9.90;99.90;;;;;;5151985;27;20210;-64
2023/05/16 04:28:51;;;;;;;10.80;4.18;;;9.90;99.90;;;;;;5152915;27;20592;-66
2023/05/16 04:31:18;;;;;;;6.50;3.22;;;9.80;99.90;;;;;;5153012;27;20225;-65
2023/05/16 04:33:45;;;;;;;11.00;3.88;;;9.90;99.90;;;;;;5154235;27;20194;-65
2023/05/16 04:36:12;;;;;;;6.75;3.67;;;9.80;99.90;;;;;;5154825;27;20194;-65
2023/05/16 04:38:39;;;;;;;6.55;4.00;;;9.80;99.90;;;;;;5153569;27;20202;-65
2023/05/16 04:41:06;;;;;;;6.30;3.08;;;9.90;99.90;;;;;;5154426;27;20209;-65
2023/05/16 04:43:32;;;;;;;13.38;3.50;;;9.90;99.90;;;;;;5153320;27;20202;-65
2023/05/16 04:46:01;;;;;;;10.02;3.55;;;9.90;99.90;;;;;;5153663;27;20198;-65
2023/05/16 04:48:27;;;;;;;7.35;3.10;;;9.90;99.90;;;;;;5152531;27;20211;-65
2023/05/16 04:50:54;;;;;;;8.38;2.90;;;9.80;99.90;;;;;;5157975;22;20232;-59
2023/05/16 04:53:21;;;;;;;10.13;3.55;;;9.80;99.90;;;;;;5111466;28;20210;-59
2023/05/16 04:55:48;;;;;;;8.07;3.88;;;9.80;99.90;;;;;;5111774;28;20232;-59
2023/05/16 04:58:15;;;;;;;10.07;4.50;;;9.80;99.90;;;;;;5111150;28;20203;-58
2023/05/16 05:00:42;;;;;;;10.88;3.05;;;9.80;99.90;;;;;;5110802;28;20290;-61
2023/05/16 05:03:10;;;;;;;16.67;4.43;;;9.80;99.90;;;;;;5112385;28;20290;-59
2023/05/16 05:05:37;;;;;;;9.68;2.88;;;9.90;99.90;;;;;;5112299;28;20281;-60
2023/05/16 05:08:03;;;;;;;8.93;3.80;;;9.90;99.90;;;;;;5114455;28;20214;-58
2023/05/16 05:10:30;;;;;;;7.88;3.10;;;9.90;99.90;;;;;;5119475;28;20258;-59
2023/05/16 05:12:57;;;;;;;8.70;3.00;;;10.00;99.90;;;;;;5119629;28;20203;-59
2023/05/16 05:15:24;;;;;;;12.27;2.90;;;9.90;99.90;;;;;;5120275;28;20465;-59
2023/05/16 05:17:51;;;;;;;9.50;3.25;;;10.00;99.90;;;;;;5119251;28;20204;-58
2023/05/16 05:20:19;;;;;;;6.15;2.63;;;10.00;99.90;;;;;;5115907;28;20226;-60
2023/05/16 05:22:46;;;;;;;6.93;2.92;;;10.00;99.90;;;;;;5101702;28;20204;-60
2023/05/16 05:25:13;;;;;;;9.00;2.70;;;9.90;99.90;;;;;;5098742;28;20595;-60
2023/05/16 05:27:40;;;;;;;17.42;3.33;;;9.90;99.90;;;;;;5098166;28;20932;-61
2023/05/16 05:30:08;;;;;;;12.50;3.78;;;9.90;99.90;;;;;;5097725;28;20216;-59
2023/05/16 05:32:35;;;;;;;10.60;3.03;;;9.90;99.90;;;;;;5098231;28;20200;-59
2023/05/16 05:35:02;;;;;;;6.75;3.25;;;9.90;99.90;;;;;;5097566;28;20223;-59
2023/05/16 05:37:30;;;;;;;11.70;3.70;;;10.00;99.90;;;;;;5097663;28;20204;-59
2023/05/16 05:39:57;;;;;;;7.90;3.65;;;10.00;99.90;;;;;;5098805;28;20200;-60
2023/05/16 05:42:24;;;;;;;4.97;2.60;;;10.10;99.90;;;;;;5098373;28;20212;-59
2023/05/16 05:44:51;;;;;;;7.20;2.20;;;10.00;99.90;;;;;;5099959;28;20446;-60
2023/05/16 05:47:17;;;;;;;10.20;3.58;;;10.00;99.90;;;;;;5105857;28;20201;-60
2023/05/16 05:49:44;;;;;;;6.90;2.80;;;10.00;99.90;;;;;;5107347;28;20215;-60
2023/05/16 05:52:11;;;;;;;14.67;2.53;;;10.00;99.90;;;;;;5108452;28;20481;-60
2023/05/16 05:54:39;;;;;;;6.10;1.77;;;10.00;99.90;;;;;;5109084;28;20442;-60
2023/05/16 05:57:06;;;;;;;9.20;2.55;;;10.00;99.90;;;;;;5110682;28;20453;-59
2023/05/16 05:59:33;;;;;;;6.00;2.10;;;10.00;99.90;;;;;;5108485;28;20287;-60
2023/05/16 06:02:00;;;;;;;11.40;2.85;;;10.00;99.90;;;;;;5103227;28;20262;-59
2023/05/16 06:04:27;;;;;;;11.93;2.45;;;10.10;99.90;;;;;;5103086;28;20211;-62
2023/05/16 06:06:54;;;;;;;11.75;3.85;;;10.00;99.90;;;;;;5101717;28;20629;-58
2023/05/16 06:09:21;;;;;;;11.65;3.63;;;10.00;99.90;;;;;;5099899;28;20204;-60
2023/05/16 06:11:49;;;;;;;11.30;3.03;;;10.00;99.90;;;;;;5098296;28;20648;-59
2023/05/16 06:14:16;;;;;;;7.90;2.80;;;10.00;99.90;;;;;;5097205;28;20200;-59
2023/05/16 06:16:43;;;;;;;7.85;2.40;;;10.00;99.90;;;;;;5097605;28;20200;-59
2023/05/16 06:19:11;;;;;;;12.63;2.80;;;10.10;99.90;;;;;;5097065;28;20200;-58
2023/05/16 06:21:38;;;;;;;6.67;2.60;;;10.10;99.90;;;;;;5097559;28;20227;-60
2023/05/16 06:24:05;;;;;;;14.83;2.80;;;10.10;99.90;;;;;;5096442;28;20450;-58
2023/05/16 06:26:33;;;;;;;6.57;2.43;;;10.20;99.90;;;;;;5096339;28;20885;-61
2023/05/16 06:29:01;;;;;;;7.23;3.00;;;10.20;99.90;;;;;;5097425;28;20499;-59
2023/05/16 06:31:28;;;;;;;11.52;3.13;;;10.30;99.90;;;;;;5097398;28;20478;-61
2023/05/16 06:33:55;;;;;;;11.27;2.92;;;10.30;99.90;;;;;;5096043;28;20218;-61
2023/05/16 06:36:22;;;;;;;15.23;3.40;;;10.30;99.20;;;;;;5096757;28;20308;-59
2023/05/16 06:38:49;;;;;;;8.18;2.97;;;10.30;99.00;;;;;;5099383;28;20448;-59
2023/05/16 06:41:16;;;;;;;7.70;2.57;;;10.40;99.20;;;;;;5099106;28;20710;-60
2023/05/16 06:43:43;;;;;;;8.70;2.37;;;10.50;99.10;;;;;;5098605;28;20789;-60
2023/05/16 06:46:11;;;;;;;5.80;2.70;;;10.70;98.90;;;;;;5098579;28;20959;-59
2023/05/16 06:48:38;;;;;;;7.07;2.00;;;11.00;98.60;;;;;;5097415;28;20450;-60
2023/05/16 06:51:05;;;;;;;5.43;1.77;;;11.20;97.70;;;;;;5098796;28;20486;-59
2023/05/16 06:53:32;;;;;;;5.00;2.10;;;11.30;95.70;;;;;;5098802;28;20452;-59
2023/05/16 06:55:58;;;;;;;9.90;2.20;;;11.20;93.10;;;;;;5099052;28;20441;-59
2023/05/16 06:58:26;;;;;;;5.40;1.50;;;11.10;91.80;;;;;;5099294;28;20924;-60
2023/05/16 07:00:53;;;;;;;5.03;1.70;;;11.00;89.80;;;;;;5099163;28;20523;-59
2023/05/16 07:03:21;;;;;;;7.70;1.80;;;10.90;87.60;;;;;;5097469;28;20449;-58
2023/05/16 07:05:50;;;;;;;3.40;1.47;;;10.90;86.70;;;;;;5098559;28;20442;-59
2023/05/16 07:08:17;;;;;;;5.97;2.03;;;10.90;83.30;;;;;;5096789;28;20446;-60
2023/05/16 07:10:43;;;;;;;7.33;2.00;;;10.90;80.10;;;;;;5096302;28;20478;-59
2023/05/16 07:13:10;;;;;;;7.50;1.53;;;11.10;80.10;;;;;;5097067;28;20442;-59
2023/05/16 07:15:37;;;;;;;4.07;1.57;;;11.30;79.60;;;;;;5096219;28;20438;-59
2023/05/16 07:18:04;;;;;;;4.50;1.77;;;11.50;77.00;;;;;;5097741;28;20430;-58
2023/05/16 07:20:32;;;;;;;4.73;1.83;;;11.60;74.60;;;;;;5096868;28;20577;-60
2023/05/16 07:22:59;;;;;;;6.30;2.60;;;11.80;73.00;;;;;;5095799;28;20445;-59
2023/05/16 07:25:26;;;;;;;11.07;1.70;;;11.90;72.50;;;;;;5095908;28;20452;-59
2023/05/16 07:27:53;;;;;;;5.43;1.83;;;12.10;72.00;;;;;;5095820;28;20986;-60
2023/05/16 07:30:20;;;;;;;8.33;2.63;;;12.10;68.00;;;;;;5097027;28;20494;-60
2023/05/16 07:32:47;;;;;;;9.70;2.10;;;12.00;66.80;;;;;;5096369;28;20519;-59
2023/05/16 07:35:14;;;;;;;6.60;1.80;;;11.90;65.80;;;;;;5095396;28;20894;-59
2023/05/16 07:37:42;;;;;;;7.80;2.00;;;11.80;65.10;;;;;;5095862;28;20812;-60
2023/05/16 07:40:10;;;;;;;3.50;1.60;;;11.70;65.00;;;;;;5095427;28;20439;-60
2023/05/16 07:42:37;;;;;;;6.40;2.03;;;11.70;64.10;;;;;;5095291;28;20450;-59
2023/05/16 07:45:05;;;;;;;4.63;1.50;;;11.60;63.40;;;;;;5094581;28;20442;-59
2023/05/16 07:47:32;;;;;;;2.03;1.40;;;11.60;62.90;;;;;;5094994;28;20971;-60
2023/05/16 07:49:59;;;;;;;3.60;1.40;;;11.70;62.30;;;;;;5097048;28;20438;-60
2023/05/16 07:52:26;;;;;;;6.17;2.07;;;11.80;61.70;;;;;;5097233;28;20462;-60
2023/05/16 07:54:54;;;;;;;3.13;1.67;;;12.00;61.80;;;;;;5095732;28;20458;-60
2023/05/16 07:57:21;;;;;;;10.93;2.73;;;12.10;61.00;;;;;;5096537;28;20438;-59
2023/05/16 07:59:48;;;;;;;4.63;1.60;;;12.30;61.60;;;;;;5095627;28;20449;-58
2023/05/16 08:02:15;;;;;;;5.30;1.73;;;12.50;61.90;;;;;;5095367;28;20462;-59
2023/05/16 08:04:42;;;;;;;4.33;1.80;;;12.70;61.30;;;;;;5095457;28;20503;-60
2023/05/16 08:07:09;;;;;;;4.20;2.37;;;12.70;60.30;;;;;;5098139;28;20439;-60
2023/05/16 08:09:36;;;;;;;9.10;2.10;;;12.50;59.80;;;;;;5096771;28;20928;-60
2023/05/16 08:12:05;;;;;;;3.60;1.60;;;12.30;60.60;;;;;;5095140;28;20821;-59
2023/05/16 08:14:31;;;;;;;17.83;3.03;;;12.30;61.20;;;;;;5095227;28;20963;-58
2023/05/16 08:16:59;;;;;;;3.87;1.60;;;12.30;61.50;;;;;;5096884;28;20447;-59
2023/05/16 08:19:26;;;;;;;5.60;1.53;;;12.30;61.60;;;;;;5095277;28;20864;-60
2023/05/16 08:21:52;;;;;;;5.33;1.50;;;12.40;61.20;;;;;;5095135;28;20455;-59
2023/05/16 08:24:20;;;;;;;5.07;1.67;;;12.50;60.00;;;;;;5096994;28;20438;-59
2023/05/16 08:26:46;;;;;;;3.53;1.90;;;12.70;58.70;;;;;;5096593;28;20476;-62
2023/05/16 08:29:15;;;;;;;2.93;1.47;;;12.80;57.70;;;;;;5095811;28;20446;-60
2023/05/16 08:31:41;;;;;;;3.40;1.23;;;12.90;56.50;;;;;;5094652;28;20485;-59
2023/05/16 08:34:09;;;;;;;3.87;1.17;;;13.00;55.90;;;;;;5094738;28;20445;-59
2023/05/16 08:36:36;;;;;;;2.67;1.20;;;13.10;55.50;;;;;;5095006;28;20445;-60
2023/05/16 08:39:03;;;;;;;3.53;1.30;;;13.00;54.90;;;;;;5094790;28;20513;-60
2023/05/16 08:41:30;;;;;;;5.13;1.73;;;12.90;54.40;;;;;;5094695;28;20470;-60
2023/05/16 08:43:57;;;;;;;6.00;1.90;;;12.90;54.60;;;;;;5095351;28;20446;-59
2023/05/16 08:46:28;;;;;;;5.70;1.80;;;12.90;54.70;;;;;;5097667;28;20445;-60
2023/05/16 08:48:58;;;;;;;4.30;1.77;;;13.10;55.20;;;;;;5102542;28;20437;-59
2023/05/16 08:51:26;;;;;;;5.20;1.80;;;13.30;54.50;;;;;;5105328;28;20538;-59
2023/05/16 08:53:59;;;;;;;3.67;1.63;;;13.40;53.70;;;;;;5100706;28;20449;-59
2023/05/16 08:56:27;;;;;;;4.70;1.40;;;13.50;53.90;;;;;;5099448;28;20423;-58
2023/05/16 08:58:54;;;;;;;8.07;1.83;;;13.60;53.20;;;;;;5102794;28;20446;-58
2023/05/16 09:01:21;;;;;;;6.20;1.30;;;13.50;52.70;;;;;;5103764;28;20458;-60
2023/05/16 09:03:51;;;;;;;6.17;2.00;;;13.30;53.20;;;;;;5101436;28;20442;-57
2023/05/16 09:06:18;;;;;;;6.40;1.60;;;13.30;54.10;;;;;;5103122;28;20503;-59
2023/05/16 09:08:44;;;;;;;2.60;1.40;;;13.50;53.70;;;;;;5102166;28;20448;-61
2023/05/16 09:11:11;;;;;;;2.73;1.07;;;13.60;53.20;;;;;;5099943;28;20482;-58
2023/05/16 09:13:39;;;;;;;8.10;1.70;;;13.70;53.10;;;;;;5100116;28;20821;-58
2023/05/16 09:16:10;;;;;;;8.03;1.20;;;13.80;53.00;;;;;;5100453;28;20653;-59
2023/05/16 09:18:38;;;;;;;2.83;1.47;;;13.90;52.50;;;;;;5100010;28;20495;-59
2023/05/16 09:21:07;;;;;;;4.77;1.57;;;14.00;52.30;;;;;;5098675;28;20462;-59
2023/05/16 09:23:34;;;;;;;3.40;1.10;;;14.20;51.90;;;;;;5099586;28;20446;-59
2023/05/16 09:26:01;;;;;;;3.53;1.30;;;14.50;50.60;;;;;;5099967;28;20450;-58
2023/05/16 09:28:28;;;;;;;8.13;1.13;;;14.70;49.50;;;;;;5098878;28;20558;-59
2023/05/16 09:30:58;;;;;;;3.53;1.10;;;14.70;48.50;;;;;;5099204;28;20466;-60
2023/05/16 09:33:27;;;;;;;7.57;1.60;;;14.70;47.20;;;;;;5099597;28;20450;-59
2023/05/16 09:35:58;;;;;;;3.30;1.40;;;14.70;46.60;;;;;;5099355;28;20453;-59
2023/05/16 09:38:27;;;;;;;2.83;1.63;;;14.80;46.40;;;;;;5099541;28;20936;-59
2023/05/16 09:40:54;;;;;;;4.23;1.20;;;14.70;46.00;;;;;;5099612;28;20473;-60
2023/05/16 09:43:25;;;;;;;2.60;1.00;;;14.60;46.50;;;;;;5100231;28;20434;-60
2023/05/16 09:45:52;;;;;;;3.57;2.00;;;14.50;46.70;;;;;;5099862;28;20790;-60
2023/05/16 09:48:22;;;;;;;3.83;1.33;;;14.50;47.00;;;;;;5100906;28;20453;-60
2023/05/16 09:50:52;;;;;;;6.10;1.13;;;14.60;45.80;;;;;;5102285;28;20501;-59
2023/05/16 09:53:27;;;;;;;4.23;1.53;;;14.20;46.10;;;;;;5103818;28;20502;-59
2023/05/16 09:56:03;;;;;;;1.43;1.10;;;13.90;46.70;;;;;;5102824;28;20437;-58
2023/05/16 09:58:31;;;;;;;3.43;1.17;;;13.90;47.70;;;;;;5100712;28;20802;-60
2023/05/16 10:00:58;;;;;;;6.00;1.30;;;14.10;47.10;;;;;;5100631;28;20471;-59
2023/05/16 10:03:26;;;;;;;5.13;1.63;;;14.30;45.90;;;;;;5101436;28;20434;-60
2023/05/16 10:05:53;;;;;;;5.97;1.40;;;14.70;45.60;;;;;;5100724;28;20854;-59
2023/05/16 10:08:21;;;;;;;4.00;0.90;;;15.00;44.90;;;;;;5100789;28;20438;-60
2023/05/16 10:10:52;;;;;;;3.20;1.43;;;15.20;44.50;;;;;;5098625;28;20458;-58
2023/05/16 10:13:21;;;;;;;3.10;1.20;;;15.30;43.70;;;;;;5099253;28;21020;-58
2023/05/16 10:15:49;;;;;;;2.70;1.23;;;15.40;43.20;;;;;;5098858;28;20446;-58
2023/05/16 10:18:18;;;;;;;6.70;1.53;;;15.60;43.00;;;;;;5098750;28;20450;-59
2023/05/16 10:20:48;;;;;;;3.10;1.40;;;15.80;42.80;;;;;;5098958;28;20494;-60
2023/05/16 10:23:17;;;;;;;7.33;1.57;;;16.00;42.40;;;;;;5098681;28;20423;-59
2023/05/16 10:25:46;;;;;;;3.47;1.17;;;15.90;42.10;;;;;;5099374;28;20443;-60
2023/05/16 10:28:15;;;;;;;2.33;1.30;;;15.60;42.10;;;;;;5098028;28;20951;-58
2023/05/16 10:30:43;;;;;;;2.60;1.20;;;15.30;42.90;;;;;;5100799;28;20458;-59
2023/05/16 10:33:12;;;;;;;7.83;2.17;;;15.00;43.80;;;;;;5110914;28;20478;-60
2023/05/16 10:35:39;;;;;;;5.30;1.77;;;15.00;44.40;;;;;;5103731;28;20511;-59
2023/05/16 10:38:08;;;;;;;3.97;1.43;;;15.20;44.70;;;;;;5100108;28;20439;-60
2023/05/16 10:40:36;;;;;;;3.10;1.23;;;15.30;44.60;;;;;;5098980;28;20471;-59
2023/05/16 10:43:04;;;;;;;5.37;1.40;;;15.40;43.40;;;;;;5100051;28;20442;-59
2023/05/16 10:45:32;;;;;;;2.83;1.00;;;15.50;42.50;;;;;;5099970;28;20456;-59
2023/05/16 10:48:00;;;;;;;6.07;1.47;;;15.70;42.10;;;;;;5098386;28;20446;-60
2023/05/16 10:50:32;;;;;;;5.47;1.30;;;15.70;41.30;;;;;;5099179;28;20478;-59
2023/05/16 10:53:19;;;;;;;4.13;1.20;;;15.80;40.60;;;;;;5113758;22;20554;-63
2023/05/16 10:55:50;;;;;;;5.30;1.50;;;15.80;40.20;;;;;;5099159;28;20430;-64
2023/05/16 10:58:25;;;;;;;3.93;1.33;;;15.70;40.50;;;;;;5096792;28;20971;-63
2023/05/16 11:01:20;;;;;;;2.40;1.00;;;15.60;40.70;;;;;;5095021;28;20539;-64
2023/05/16 11:04:06;;;;;;;1.80;0.90;;;15.70;41.00;;;;;;5074248;28;20438;-63
2023/05/16 11:06:34;;;;;;;3.40;1.37;;;15.80;40.30;;;;;;5074946;28;20432;-64
2023/05/16 11:09:09;;;;;;;1.47;1.13;;;15.80;39.60;;;;;;5074457;28;20450;-64
2023/05/16 11:11:40;;;;;;;2.87;1.60;;;15.70;39.70;;;;;;5074335;28;20557;-64
2023/05/16 11:14:10;;;;;;;2.57;1.00;;;15.70;40.10;;;;;;5073918;28;20471;-63
2023/05/16 11:16:39;;;;;;;2.83;1.37;;;15.80;40.30;;;;;;5073614;28;21009;-64
2023/05/16 11:19:07;;;;;;;3.00;1.17;;;16.00;40.10;;;;;;5073703;28;20447;-64
2023/05/16 11:22:06;;;;;;;4.03;1.30;;;16.00;39.40;;;;;;5073796;28;20525;-63
2023/05/16 11:24:33;;;;;;;3.53;1.70;;;16.10;39.00;;;;;;5073797;28;20501;-62
2023/05/16 11:27:01;;;;;;;2.77;1.33;;;15.80;39.10;;;;;;5073450;28;20993;-64
2023/05/16 11:29:37;;;;;;;5.43;1.30;;;15.80;39.60;;;;;;5077916;28;20423;-61
2023/05/16 11:32:05;;;;;;;2.47;1.23;;;15.60;39.90;;;;;;5073420;28;20551;-61
2023/05/16 11:34:36;;;;;;;5.37;1.30;;;15.40;40.80;;;;;;5073480;28;20454;-62
2023/05/16 11:37:03;;;;;;;2.30;1.27;;;15.30;41.70;;;;;;5074283;28;20518;-61
2023/05/16 11:39:31;;;;;;;2.57;1.20;;;15.30;42.30;;;;;;5073385;28;20538;-61
2023/05/16 11:41:58;;;;;;;2.77;1.37;;;15.50;42.80;;;;;;5073424;28;20897;-62
2023/05/16 11:44:25;;;;;;;7.63;1.97;;;15.50;42.90;;;;;;5073086;28;20443;-61
2023/05/16 11:46:52;;;;;;;2.50;1.10;;;15.60;42.90;;;;;;5073496;28;20443;-63
2023/05/16 11:49:20;;;;;;;7.10;1.90;;;16.00;42.00;;;;;;5073248;28;20451;-63
2023/05/16 11:51:48;;;;;;;3.60;1.60;;;16.50;41.70;;;;;;5073103;28;20471;-64
2023/05/16 11:54:15;;;;;;;3.43;1.17;;;17.10;40.30;;;;;;5073637;28;20432;-64
2023/05/16 11:56:44;;;;;;;3.50;1.60;;;17.70;38.90;;;;;;5073370;28;20450;-63
2023/05/16 11:59:11;;;;;;;4.90;1.40;;;17.90;38.00;;;;;;5073716;28;20447;-63
2023/05/16 12:01:39;;;;;;;2.40;1.27;;;18.20;37.50;;;;;;5073710;28;20498;-63
2023/05/16 12:04:09;;;;;;;3.43;1.07;;;18.40;36.80;;;;;;5073566;28;20932;-63
2023/05/16 12:06:37;;;;;;;3.87;1.40;;;18.50;35.80;;;;;;5073976;28;20458;-63
2023/05/16 12:09:09;;;;;;;4.87;1.40;;;18.60;35.90;;;;;;5074175;28;20447;-63
2023/05/16 12:11:37;;;;;;;3.47;1.17;;;18.80;36.00;;;;;;5074677;28;20467;-63
2023/05/16 12:17:14;;;;;;;2.60;1.67;;;19.00;36.40;;;;;;5078284;28;20431;-66
2023/05/16 12:19:41;;;;;;;7.60;1.83;;;19.00;36.50;;;;;;5081340;28;20446;-61
2023/05/16 12:22:16;;;;;;;4.60;1.57;;;18.50;36.90;;;;;;5073780;28;20542;-61
2023/05/16 12:24:43;;;;;;;4.90;1.83;;;18.40;37.60;;;;;;5080123;28;20416;-63
2023/05/16 12:27:10;;;;;;;1.40;1.03;;;18.80;37.40;;;;;;5078344;28;20449;-61
2023/05/16 12:29:58;;;;;;;3.17;1.00;;;19.00;36.50;;;;;;5076496;28;20443;-62
2023/05/16 12:32:25;;;;;;;3.50;1.30;;;18.30;36.20;;;;;;5078031;28;20491;-60
2023/05/16 12:34:53;;;;;;;5.47;1.60;;;17.60;37.40;;;;;;5080580;28;20447;-62
2023/05/16 12:37:34;;;;;;;5.70;1.60;;;17.10;38.90;;;;;;5080083;28;20439;-62
2023/05/16 12:40:01;;;;;;;1.87;1.30;;;16.70;39.60;;;;;;5083967;28;20450;-65
2023/05/16 12:42:27;;;;;;;4.80;1.80;;;16.40;39.80;;;;;;5081532;28;20496;-65
2023/05/16 12:44:56;;;;;;;3.20;1.20;;;16.20;39.70;;;;;;5080846;28;20451;-64
2023/05/16 12:47:23;;;;;;;12.70;1.40;;;15.80;41.40;;;;;;5078672;28;20447;-63
2023/05/16 12:49:53;;;;;;;2.30;1.40;;;15.30;43.30;;;;;;5078054;28;20447;-63
2023/05/16 12:52:21;;;;;;;5.37;1.50;;;14.90;44.50;;;;;;5077227;28;20497;-63
2023/05/16 12:54:49;;;;;;;4.43;1.57;;;14.60;45.10;;;;;;5077402;28;20477;-63
2023/05/16 12:57:15;;;;;;;6.63;1.67;;;14.40;45.70;;;;;;5077165;28;20968;-63